sensor_id;sensor_type;location;lat;lon;timestamp;pressure;altitude;pressure_sealevel;temperature;humidity
36692;BME280;22678;52.052;4.242;2023-05-03T00:02:13;103025.34;;;9.46;55.25
36692;BME280;22678;52.052;4.242;2023-05-03T00:04:38;102989.50;;;9.19;55.22
36692;BME280;22678;52.052;4.242;2023-05-03T00:07:05;103033.09;;;9.41;55.33
36692;BME280;22678;52.052;4.242;2023-05-03T00:09:32;103035.56;;;9.37;55.53
36692;BME280;22678;52.052;4.242;2023-05-03T00:11:57;103037.22;;;9.35;55.83
36692;BME280;22678;52.052;4.242;2023-05-03T00:14:24;103045.06;;;9.33;55.85
36692;BME280;22678;52.052;4.242;2023-05-03T00:16:49;103022.97;;;9.26;55.67
36692;BME280;22678;52.052;4.242;2023-05-03T00:19:15;103024.66;;;9.24;55.99
36692;BME280;22678;52.052;4.242;2023-05-03T00:21:41;103025.66;;;9.28;56.10
36692;BME280;22678;52.052;4.242;2023-05-03T00:24:06;103018.50;;;9.24;56.04
36692;BME280;22678;52.052;4.242;2023-05-03T00:26:31;103024.44;;;9.18;56.23
36692;BME280;22678;52.052;4.242;2023-05-03T00:28:57;103030.56;;;9.17;56.09
36692;BME280;22678;52.052;4.242;2023-05-03T00:31:22;103031.31;;;9.13;56.40
36692;BME280;22678;52.052;4.242;2023-05-03T00:33:48;103025.97;;;9.10;56.59
36692;BME280;22678;52.052;4.242;2023-05-03T00:36:13;103034.72;;;9.10;56.44
36692;BME280;22678;52.052;4.242;2023-05-03T00:38:40;103020.47;;;9.04;56.70
36692;BME280;22678;52.052;4.242;2023-05-03T00:41:08;103020.28;;;8.98;56.66
36692;BME280;22678;52.052;4.242;2023-05-03T00:43:33;103027.31;;;8.99;56.66
36692;BME280;22678;52.052;4.242;2023-05-03T00:46:00;103032.56;;;8.99;56.83
36692;BME280;22678;52.052;4.242;2023-05-03T00:48:27;103040.41;;;8.97;56.94
36692;BME280;22678;52.052;4.242;2023-05-03T00:50:52;103021.69;;;8.86;56.99
36692;BME280;22678;52.052;4.242;2023-05-03T00:53:21;103034.94;;;8.91;57.21
36692;BME280;22678;52.052;4.242;2023-05-03T00:55:47;103022.34;;;8.81;57.20
36692;BME280;22678;52.052;4.242;2023-05-03T00:58:12;103039.06;;;8.84;57.45
36692;BME280;22678;52.052;4.242;2023-05-03T01:00:38;103056.63;;;8.85;57.54
36692;BME280;22678;52.052;4.242;2023-05-03T01:03:03;103054.72;;;8.81;57.67
36692;BME280;22678;52.052;4.242;2023-05-03T01:05:34;103007.56;;;8.57;57.60
36692;BME280;22678;52.052;4.242;2023-05-03T01:08:38;103040.31;;;8.70;57.78
36692;BME280;22678;52.052;4.242;2023-05-03T01:11:07;103051.84;;;8.73;57.99
36692;BME280;22678;52.052;4.242;2023-05-03T01:13:43;103039.25;;;8.63;58.09
36692;BME280;22678;52.052;4.242;2023-05-03T01:18:51;103042.69;;;8.62;58.34
36692;BME280;22678;52.052;4.242;2023-05-03T01:21:20;103038.22;;;8.59;58.38
36692;BME280;22678;52.052;4.242;2023-05-03T01:23:59;103023.06;;;8.51;58.49
36692;BME280;22678;52.052;4.242;2023-05-03T01:26:27;103030.03;;;8.50;58.66
36692;BME280;22678;52.052;4.242;2023-05-03T01:28:53;103027.31;;;8.47;58.95
36692;BME280;22678;52.052;4.242;2023-05-03T01:31:30;103006.84;;;8.38;58.88
36692;BME280;22678;52.052;4.242;2023-05-03T01:36:31;103002.34;;;8.34;59.14
36692;BME280;22678;52.052;4.242;2023-05-03T01:39:22;103010.97;;;8.32;59.07
36692;BME280;22678;52.052;4.242;2023-05-03T01:41:51;102990.66;;;8.24;59.57
36692;BME280;22678;52.052;4.242;2023-05-03T01:44:18;103000.38;;;8.29;59.60
36692;BME280;22678;52.052;4.242;2023-05-03T01:46:44;102981.72;;;8.19;59.75
36692;BME280;22678;52.052;4.242;2023-05-03T01:49:10;102981.81;;;8.22;59.55
36692;BME280;22678;52.052;4.242;2023-05-03T01:51:36;102966.72;;;8.15;59.70
36692;BME280;22678;52.052;4.242;2023-05-03T01:54:01;102948.97;;;8.08;59.94
36692;BME280;22678;52.052;4.242;2023-05-03T01:56:26;102948.75;;;8.02;60.11
36692;BME280;22678;52.052;4.242;2023-05-03T01:58:52;102948.75;;;8.02;60.33
36692;BME280;22678;52.052;4.242;2023-05-03T02:01:17;102951.34;;;8.00;60.18
36692;BME280;22678;52.052;4.242;2023-05-03T02:03:42;102955.69;;;8.00;60.56
36692;BME280;22678;52.052;4.242;2023-05-03T02:06:07;102962.69;;;8.01;60.46
36692;BME280;22678;52.052;4.242;2023-05-03T02:08:33;102970.56;;;8.01;60.60
36692;BME280;22678;52.052;4.242;2023-05-03T02:10:58;102961.38;;;7.88;60.68
36692;BME280;22678;52.052;4.242;2023-05-03T02:13:23;102950.78;;;7.85;60.97
36692;BME280;22678;52.052;4.242;2023-05-03T02:15:49;102972.72;;;7.88;61.27
36692;BME280;22678;52.052;4.242;2023-05-03T02:18:14;102970.00;;;7.85;61.29
36692;BME280;22678;52.052;4.242;2023-05-03T02:20:43;102953.84;;;7.73;61.23
36692;BME280;22678;52.052;4.242;2023-05-03T02:23:09;102974.97;;;7.78;61.54
36692;BME280;22678;52.052;4.242;2023-05-03T02:25:34;102970.50;;;7.75;61.73
36692;BME280;22678;52.052;4.242;2023-05-03T02:27:59;102977.41;;;7.73;61.79
36692;BME280;22678;52.052;4.242;2023-05-03T02:30:25;102994.19;;;7.78;61.74
36692;BME280;22678;52.052;4.242;2023-05-03T02:32:50;102996.91;;;7.81;61.70
36692;BME280;22678;52.052;4.242;2023-05-03T02:35:15;102976.22;;;7.65;62.16
36692;BME280;22678;52.052;4.242;2023-05-03T02:37:41;103003.66;;;7.75;61.97
36692;BME280;22678;52.052;4.242;2023-05-03T02:40:07;102996.50;;;7.70;62.30
36692;BME280;22678;52.052;4.242;2023-05-03T02:42:33;102975.16;;;7.60;62.29
36692;BME280;22678;52.052;4.242;2023-05-03T02:44:58;102992.75;;;7.64;62.37
36692;BME280;22678;52.052;4.242;2023-05-03T02:47:24;102999.56;;;7.59;62.68
36692;BME280;22678;52.052;4.242;2023-05-03T02:49:49;102999.56;;;7.59;62.30
36692;BME280;22678;52.052;4.242;2023-05-03T02:52:15;102990.63;;;7.53;62.67
36692;BME280;22678;52.052;4.242;2023-05-03T02:54:40;102984.50;;;7.53;62.69
36692;BME280;22678;52.052;4.242;2023-05-03T02:57:05;102990.44;;;7.49;63.08
36692;BME280;22678;52.052;4.242;2023-05-03T02:59:31;103021.22;;;7.54;62.99
36692;BME280;22678;52.052;4.242;2023-05-03T03:01:57;103013.88;;;7.46;63.04
36692;BME280;22678;52.052;4.242;2023-05-03T03:04:22;103017.38;;;7.46;63.10
36692;BME280;22678;52.052;4.242;2023-05-03T03:06:47;103013.72;;;7.41;62.78
36692;BME280;22678;52.052;4.242;2023-05-03T03:09:13;103027.63;;;7.40;63.01
36692;BME280;22678;52.052;4.242;2023-05-03T03:11:38;103025.13;;;7.43;63.26
36692;BME280;22678;52.052;4.242;2023-05-03T03:14:03;103012.44;;;7.31;63.27
36692;BME280;22678;52.052;4.242;2023-05-03T03:16:29;103008.94;;;7.31;63.44
36692;BME280;22678;52.052;4.242;2023-05-03T03:18:54;103008.81;;;7.28;63.73
36692;BME280;22678;52.052;4.242;2023-05-03T03:21:19;103014.16;;;7.31;63.85
36692;BME280;22678;52.052;4.242;2023-05-03T03:23:45;103020.94;;;7.26;63.72
36692;BME280;22678;52.052;4.242;2023-05-03T03:26:10;103005.22;;;7.26;63.73
36692;BME280;22678;52.052;4.242;2023-05-03T03:28:36;103020.69;;;7.19;64.13
36692;BME280;22678;52.052;4.242;2023-05-03T03:31:01;103025.91;;;7.19;63.91
36692;BME280;22678;52.052;4.242;2023-05-03T03:33:27;103033.84;;;7.21;64.10
36692;BME280;22678;52.052;4.242;2023-05-03T03:35:52;103036.38;;;7.19;64.23
36692;BME280;22678;52.052;4.242;2023-05-03T03:38:17;103046.78;;;7.18;64.21
36692;BME280;22678;52.052;4.242;2023-05-03T03:40:43;103034.22;;;7.09;64.00
36692;BME280;22678;52.052;4.242;2023-05-03T03:43:08;103040.25;;;7.07;64.67
36692;BME280;22678;52.052;4.242;2023-05-03T03:45:34;103033.97;;;7.03;64.47
36692;BME280;22678;52.052;4.242;2023-05-03T03:47:59;103039.22;;;7.03;64.79
36692;BME280;22678;52.052;4.242;2023-05-03T03:50:25;103045.25;;;7.02;64.73
36692;BME280;22678;52.052;4.242;2023-05-03T03:52:50;103038.84;;;6.94;64.92
36692;BME280;22678;52.052;4.242;2023-05-03T03:55:16;103041.31;;;6.91;64.89
36692;BME280;22678;52.052;4.242;2023-05-03T03:57:41;103018.22;;;6.80;65.40
36692;BME280;22678;52.052;4.242;2023-05-03T04:00:07;103044.63;;;6.87;65.21
36692;BME280;22678;52.052;4.242;2023-05-03T04:02:35;103049.03;;;6.88;65.42
36692;BME280;22678;52.052;4.242;2023-05-03T04:05:01;103038.22;;;6.80;65.36
36692;BME280;22678;52.052;4.242;2023-05-03T04:07:26;103044.38;;;6.80;65.67
36692;BME280;22678;52.052;4.242;2023-05-03T04:09:51;103036.25;;;6.74;65.35
36692;BME280;22678;52.052;4.242;2023-05-03T04:12:17;103049.59;;;6.80;65.85
36692;BME280;22678;52.052;4.242;2023-05-03T04:14:42;103041.47;;;6.74;65.59
36692;BME280;22678;52.052;4.242;2023-05-03T04:17:08;103035.97;;;6.68;65.77
36692;BME280;22678;52.052;4.242;2023-05-03T04:19:33;103034.34;;;6.70;65.71
36692;BME280;22678;52.052;4.242;2023-05-03T04:21:59;103036.66;;;6.64;65.71
36692;BME280;22678;52.052;4.242;2023-05-03T04:24:24;103038.47;;;6.65;66.09
36692;BME280;22678;52.052;4.242;2023-05-03T04:26:51;103018.25;;;6.61;66.15
36692;BME280;22678;52.052;4.242;2023-05-03T04:29:17;103033.31;;;6.66;65.99
36692;BME280;22678;52.052;4.242;2023-05-03T04:31:44;103019.84;;;6.57;66.27
36692;BME280;22678;52.052;4.242;2023-05-03T04:34:10;103026.94;;;6.60;66.20
36692;BME280;22678;52.052;4.242;2023-05-03T04:36:39;103028.69;;;6.61;66.32
36692;BME280;22678;52.052;4.242;2023-05-03T04:39:06;103034.97;;;6.64;66.56
36692;BME280;22678;52.052;4.242;2023-05-03T04:41:31;102990.34;;;6.40;66.21
36692;BME280;22678;52.052;4.242;2023-05-03T04:43:57;103024.19;;;6.57;66.66
36692;BME280;22678;52.052;4.242;2023-05-03T04:46:23;103028.69;;;6.61;66.56
36692;BME280;22678;52.052;4.242;2023-05-03T04:48:48;103008.09;;;6.47;66.29
36692;BME280;22678;52.052;4.242;2023-05-03T04:51:13;103033.94;;;6.61;66.38
36692;BME280;22678;52.052;4.242;2023-05-03T04:53:39;103034.50;;;6.54;66.71
36692;BME280;22678;52.052;4.242;2023-05-03T04:56:04;103040.94;;;6.62;66.90
36692;BME280;22678;52.052;4.242;2023-05-03T04:58:30;103050.53;;;6.61;66.58
36692;BME280;22678;52.052;4.242;2023-05-03T05:00:56;103027.50;;;6.53;66.88
36692;BME280;22678;52.052;4.242;2023-05-03T05:03:22;103047.06;;;6.62;66.69
36692;BME280;22678;52.052;4.242;2023-05-03T05:05:47;103028.44;;;6.55;66.84
36692;BME280;22678;52.052;4.242;2023-05-03T05:08:12;103042.63;;;6.60;66.70
36692;BME280;22678;52.052;4.242;2023-05-03T05:10:41;103032.97;;;6.59;67.03
36692;BME280;22678;52.052;4.242;2023-05-03T05:13:06;103045.09;;;6.57;66.66
36692;BME280;22678;52.052;4.242;2023-05-03T05:15:32;103044.44;;;6.62;66.84
36692;BME280;22678;52.052;4.242;2023-05-03T05:17:57;103055.13;;;6.67;66.62
36692;BME280;22678;52.052;4.242;2023-05-03T05:20:23;103033.66;;;6.55;66.75
36692;BME280;22678;52.052;4.242;2023-05-03T05:22:48;103040.81;;;6.59;66.64
36692;BME280;22678;52.052;4.242;2023-05-03T05:25:14;103039.94;;;6.58;66.88
36692;BME280;22678;52.052;4.242;2023-05-03T05:27:39;103060.56;;;6.72;66.65
36692;BME280;22678;52.052;4.242;2023-05-03T05:30:06;103062.69;;;6.80;66.78
36692;BME280;22678;52.052;4.242;2023-05-03T05:32:31;103060.00;;;6.79;66.60
36692;BME280;22678;52.052;4.242;2023-05-03T05:34:56;103065.00;;;6.94;66.89
36692;BME280;22678;52.052;4.242;2023-05-03T05:37:22;103068.09;;;7.06;66.51
36692;BME280;22678;52.052;4.242;2023-05-03T05:39:48;103060.78;;;7.18;66.33
36692;BME280;22678;52.052;4.242;2023-05-03T05:42:13;103077.34;;;7.40;65.95
36692;BME280;22678;52.052;4.242;2023-05-03T05:44:39;103051.69;;;7.52;65.83
36692;BME280;22678;52.052;4.242;2023-05-03T05:47:04;103063.38;;;7.83;65.41
36692;BME280;22678;52.052;4.242;2023-05-03T05:49:30;103059.78;;;8.04;64.92
36692;BME280;22678;52.052;4.242;2023-05-03T05:51:55;103060.56;;;8.25;64.47
36692;BME280;22678;52.052;4.242;2023-05-03T05:54:21;103052.50;;;8.44;64.02
36692;BME280;22678;52.052;4.242;2023-05-03T05:56:47;103056.06;;;8.70;63.32
36692;BME280;22678;52.052;4.242;2023-05-03T05:59:12;103058.41;;;8.86;62.26
36692;BME280;22678;52.052;4.242;2023-05-03T06:01:37;103054.41;;;8.98;62.05
36692;BME280;22678;52.052;4.242;2023-05-03T06:04:06;103045.91;;;9.05;61.52
36692;BME280;22678;52.052;4.242;2023-05-03T06:06:31;103047.25;;;9.19;60.79
36692;BME280;22678;52.052;4.242;2023-05-03T06:08:56;103051.88;;;9.26;60.06
36692;BME280;22678;52.052;4.242;2023-05-03T06:11:21;103055.72;;;9.38;59.95
36692;BME280;22678;52.052;4.242;2023-05-03T06:13:47;103050.13;;;9.54;59.27
36692;BME280;22678;52.052;4.242;2023-05-03T06:16:12;103059.31;;;9.69;59.42
36692;BME280;22678;52.052;4.242;2023-05-03T06:18:37;103057.22;;;9.86;58.82
36692;BME280;22678;52.052;4.242;2023-05-03T06:21:03;103053.13;;;9.95;58.24
36692;BME280;22678;52.052;4.242;2023-05-03T06:23:28;103052.56;;;10.06;57.57
36692;BME280;22678;52.052;4.242;2023-05-03T06:25:54;103042.97;;;10.08;56.50
36692;BME280;22678;52.052;4.242;2023-05-03T06:28:19;103027.09;;;10.05;55.94
36692;BME280;22678;52.052;4.242;2023-05-03T06:30:54;103034.50;;;10.18;55.85
36692;BME280;22678;52.052;4.242;2023-05-03T06:33:19;103032.03;;;10.24;55.21
36692;BME280;22678;52.052;4.242;2023-05-03T06:35:44;103031.56;;;10.38;54.82
36692;BME280;22678;52.052;4.242;2023-05-03T06:38:11;103029.16;;;10.45;54.04
36692;BME280;22678;52.052;4.242;2023-05-03T06:40:36;103021.41;;;10.50;53.56
36692;BME280;22678;52.052;4.242;2023-05-03T06:43:02;103019.91;;;10.61;53.38
36692;BME280;22678;52.052;4.242;2023-05-03T06:45:27;103010.56;;;10.73;53.17
36692;BME280;22678;52.052;4.242;2023-05-03T06:47:53;103033.03;;;10.93;52.89
36692;BME280;22678;52.052;4.242;2023-05-03T06:50:18;103017.25;;;10.93;52.51
36692;BME280;22678;52.052;4.242;2023-05-03T06:52:45;103008.66;;;11.00;52.12
36692;BME280;22678;52.052;4.242;2023-05-03T06:55:10;103010.50;;;11.04;51.97
36692;BME280;22678;52.052;4.242;2023-05-03T06:57:36;103002.97;;;11.20;51.71
36692;BME280;22678;52.052;4.242;2023-05-03T07:00:01;103016.59;;;11.38;51.18
36692;BME280;22678;52.052;4.242;2023-05-03T07:02:31;103009.53;;;11.37;50.78
36692;BME280;22678;52.052;4.242;2023-05-03T07:04:56;103022.19;;;11.54;50.40
36692;BME280;22678;52.052;4.242;2023-05-03T07:07:21;103018.78;;;11.58;50.03
36692;BME280;22678;52.052;4.242;2023-05-03T07:09:47;103017.22;;;11.66;50.41
36692;BME280;22678;52.052;4.242;2023-05-03T07:12:12;103019.19;;;11.77;49.16
36692;BME280;22678;52.052;4.242;2023-05-03T07:14:38;102996.25;;;11.72;48.87
36692;BME280;22678;52.052;4.242;2023-05-03T07:17:04;102986.63;;;11.74;48.58
36692;BME280;22678;52.052;4.242;2023-05-03T07:19:29;103003.50;;;11.83;47.67
36692;BME280;22678;52.052;4.242;2023-05-03T07:21:55;102999.88;;;11.78;47.96
36692;BME280;22678;52.052;4.242;2023-05-03T07:24:20;102989.25;;;11.74;47.64
36692;BME280;22678;52.052;4.242;2023-05-03T07:26:45;102989.53;;;11.87;47.83
36692;BME280;22678;52.052;4.242;2023-05-03T07:29:11;102996.75;;;11.94;47.70
36692;BME280;22678;52.052;4.242;2023-05-03T07:31:37;102975.66;;;11.94;47.52
36692;BME280;22678;52.052;4.242;2023-05-03T07:34:02;102992.56;;;12.05;47.24
36692;BME280;22678;52.052;4.242;2023-05-03T07:36:28;102984.66;;;12.05;47.54
36692;BME280;22678;52.052;4.242;2023-05-03T07:38:53;103001.97;;;12.35;47.75
36692;BME280;22678;52.052;4.242;2023-05-03T07:41:18;102987.13;;;12.43;47.06
36692;BME280;22678;52.052;4.242;2023-05-03T07:43:44;102987.44;;;12.59;46.86
36692;BME280;22678;52.052;4.242;2023-05-03T07:46:09;103004.34;;;12.72;45.70
36692;BME280;22678;52.052;4.242;2023-05-03T07:48:34;102993.00;;;12.77;46.15
36692;BME280;22678;52.052;4.242;2023-05-03T07:51:02;102987.97;;;12.90;46.18
36692;BME280;22678;52.052;4.242;2023-05-03T07:53:28;102980.00;;;12.87;45.62
36692;BME280;22678;52.052;4.242;2023-05-03T07:55:54;102974.78;;;12.91;44.96
36692;BME280;22678;52.052;4.242;2023-05-03T07:58:19;102974.81;;;12.94;45.29
36692;BME280;22678;52.052;4.242;2023-05-03T08:00:45;102996.38;;;13.21;45.25
36692;BME280;22678;52.052;4.242;2023-05-03T08:03:10;102993.09;;;13.36;44.52
36692;BME280;22678;52.052;4.242;2023-05-03T08:05:36;102986.94;;;13.38;44.59
36692;BME280;22678;52.052;4.242;2023-05-03T08:08:02;102990.56;;;13.43;44.57
36692;BME280;22678;52.052;4.242;2023-05-03T08:10:28;102981.88;;;13.54;44.01
36692;BME280;22678;52.052;4.242;2023-05-03T08:12:53;102982.94;;;13.65;43.87
36692;BME280;22678;52.052;4.242;2023-05-03T08:15:19;102968.81;;;13.66;43.80
36692;BME280;22678;52.052;4.242;2023-05-03T08:17:45;102986.75;;;13.87;43.37
36692;BME280;22678;52.052;4.242;2023-05-03T08:20:11;102992.97;;;13.94;42.50
36692;BME280;22678;52.052;4.242;2023-05-03T08:22:38;102989.44;;;13.92;42.75
36692;BME280;22678;52.052;4.242;2023-05-03T08:25:04;103000.97;;;13.98;42.35
36692;BME280;22678;52.052;4.242;2023-05-03T08:27:30;103004.59;;;14.07;42.59
36692;BME280;22678;52.052;4.242;2023-05-03T08:29:56;102994.06;;;14.11;42.58
36692;BME280;22678;52.052;4.242;2023-05-03T08:32:22;102996.69;;;14.08;42.79
36692;BME280;22678;52.052;4.242;2023-05-03T08:34:48;103005.72;;;14.29;42.61
36692;BME280;22678;52.052;4.242;2023-05-03T08:37:13;102999.66;;;14.37;42.69
36692;BME280;22678;52.052;4.242;2023-05-03T08:39:39;102986.41;;;14.36;42.44
36692;BME280;22678;52.052;4.242;2023-05-03T08:42:07;103007.91;;;14.67;42.61
36692;BME280;22678;52.052;4.242;2023-05-03T08:44:36;103004.47;;;14.77;41.79
36692;BME280;22678;52.052;4.242;2023-05-03T08:47:02;102997.47;;;14.85;41.86
36692;BME280;22678;52.052;4.242;2023-05-03T08:49:31;102989.56;;;14.88;41.41
36692;BME280;22678;52.052;4.242;2023-05-03T08:51:58;103002.09;;;15.10;41.63
36692;BME280;22678;52.052;4.242;2023-05-03T08:54:25;102995.06;;;15.18;41.18
36692;BME280;22678;52.052;4.242;2023-05-03T08:56:51;102997.84;;;15.38;40.92
36692;BME280;22678;52.052;4.242;2023-05-03T08:59:16;102990.88;;;15.51;41.10
36692;BME280;22678;52.052;4.242;2023-05-03T09:01:42;102993.56;;;15.65;40.33
36692;BME280;22678;52.052;4.242;2023-05-03T09:04:08;103006.97;;;15.80;40.41
36692;BME280;22678;52.052;4.242;2023-05-03T09:06:34;102995.50;;;15.87;40.09
36692;BME280;22678;52.052;4.242;2023-05-03T09:09:02;103009.66;;;15.96;40.08
36692;BME280;22678;52.052;4.242;2023-05-03T09:11:31;103007.03;;;15.99;39.92
36692;BME280;22678;52.052;4.242;2023-05-03T09:14:26;103010.59;;;16.07;39.15
36692;BME280;22678;52.052;4.242;2023-05-03T09:16:52;103001.78;;;16.11;39.13
36692;BME280;22678;52.052;4.242;2023-05-03T09:19:17;102990.28;;;16.15;39.38
36692;BME280;22678;52.052;4.242;2023-05-03T09:21:44;102999.16;;;16.33;39.39
36692;BME280;22678;52.052;4.242;2023-05-03T09:24:13;102985.91;;;16.46;38.82
36692;BME280;22678;52.052;4.242;2023-05-03T09:26:39;102997.44;;;16.69;38.96
36692;BME280;22678;52.052;4.242;2023-05-03T09:29:06;102990.34;;;16.71;38.39
36692;BME280;22678;52.052;4.242;2023-05-03T09:31:33;102981.50;;;16.79;38.49
36692;BME280;22678;52.052;4.242;2023-05-03T09:33:59;102984.19;;;16.93;38.21
36692;BME280;22678;52.052;4.242;2023-05-03T09:36:25;102991.28;;;17.07;38.36
36692;BME280;22678;52.052;4.242;2023-05-03T09:38:52;102995.69;;;17.14;37.47
36692;BME280;22678;52.052;4.242;2023-05-03T09:41:28;102984.16;;;17.09;36.83
36692;BME280;22678;52.052;4.242;2023-05-03T09:43:53;102983.28;;;17.17;37.30
36692;BME280;22678;52.052;4.242;2023-05-03T09:46:27;102970.88;;;17.24;37.58
36692;BME280;22678;52.052;4.242;2023-05-03T09:48:54;102977.03;;;17.37;36.84
36692;BME280;22678;52.052;4.242;2023-05-03T09:51:22;102993.84;;;17.48;36.67
36692;BME280;22678;52.052;4.242;2023-05-03T09:53:48;102996.50;;;17.53;36.73
36692;BME280;22678;52.052;4.242;2023-05-03T09:56:14;102994.72;;;17.49;36.17
36692;BME280;22678;52.052;4.242;2023-05-03T09:58:41;102990.34;;;17.42;36.18
36692;BME280;22678;52.052;4.242;2023-05-03T10:01:08;102983.16;;;17.56;36.83
36692;BME280;22678;52.052;4.242;2023-05-03T10:06:05;102983.03;;;17.99;36.39
36692;BME280;22678;52.052;4.242;2023-05-03T10:08:39;102975.06;;;17.96;36.26
36692;BME280;22678;52.052;4.242;2023-05-03T10:11:07;102981.25;;;18.00;36.10
36692;BME280;22678;52.052;4.242;2023-05-03T10:13:34;102975.84;;;18.12;36.08
36692;BME280;22678;52.052;4.242;2023-05-03T10:16:09;102975.88;;;18.08;35.88
36692;BME280;22678;52.052;4.242;2023-05-03T10:18:44;102982.06;;;18.16;35.61
36692;BME280;22678;52.052;4.242;2023-05-03T10:21:17;102993.59;;;18.16;35.75
36692;BME280;22678;52.052;4.242;2023-05-03T10:24:14;102976.72;;;18.19;35.97
36692;BME280;22678;52.052;4.242;2023-05-03T10:26:47;102975.78;;;18.28;35.80
36692;BME280;22678;52.052;4.242;2023-05-03T10:31:58;102960.56;;;18.44;35.82
36692;BME280;22678;52.052;4.242;2023-05-03T10:34:26;102958.69;;;18.58;35.44
36692;BME280;22678;52.052;4.242;2023-05-03T10:36:54;102962.16;;;18.66;35.19
36692;BME280;22678;52.052;4.242;2023-05-03T10:39:20;102969.22;;;18.73;35.03
36692;BME280;22678;52.052;4.242;2023-05-03T10:41:58;102959.41;;;18.77;34.99
36692;BME280;22678;52.052;4.242;2023-05-03T10:47:16;102945.84;;;19.03;35.04
36692;BME280;22678;52.052;4.242;2023-05-03T10:49:41;102964.38;;;19.19;34.37
36692;BME280;22678;52.052;4.242;2023-05-03T10:55:15;102974.28;;;19.04;34.06
36692;BME280;22678;52.052;4.242;2023-05-03T10:57:43;102958.34;;;19.01;34.30
36692;BME280;22678;52.052;4.242;2023-05-03T11:03:08;102942.88;;;19.31;34.41
36692;BME280;22678;52.052;4.242;2023-05-03T11:05:36;102950.78;;;19.43;34.33
36692;BME280;22678;52.052;4.242;2023-05-03T11:08:12;102943.50;;;19.55;34.26
36692;BME280;22678;52.052;4.242;2023-05-03T11:10:38;102934.50;;;19.62;34.05
36692;BME280;22678;52.052;4.242;2023-05-03T11:13:04;102933.63;;;19.61;33.07
36692;BME280;22678;52.052;4.242;2023-05-03T11:15:29;102916.88;;;19.50;33.48
36692;BME280;22678;52.052;4.242;2023-05-03T11:17:55;102917.84;;;19.43;33.46
36692;BME280;22678;52.052;4.242;2023-05-03T11:20:21;102927.66;;;19.42;33.31
36692;BME280;22678;52.052;4.242;2023-05-03T11:22:46;102906.38;;;19.36;33.31
36692;BME280;22678;52.052;4.242;2023-05-03T11:25:12;102900.88;;;19.49;33.61
36692;BME280;22678;52.052;4.242;2023-05-03T11:27:41;102930.06;;;19.64;33.21
36692;BME280;22678;52.052;4.242;2023-05-03T11:30:07;102909.56;;;19.66;33.04
36692;BME280;22678;52.052;4.242;2023-05-03T11:32:34;102897.91;;;19.72;33.15
36692;BME280;22678;52.052;4.242;2023-05-03T11:35:01;102903.06;;;19.86;32.84
36692;BME280;22678;52.052;4.242;2023-05-03T11:37:30;102891.47;;;19.90;32.92
36692;BME280;22678;52.052;4.242;2023-05-03T11:39:56;102882.41;;;20.00;33.02
36692;BME280;22678;52.052;4.242;2023-05-03T11:42:21;102873.34;;;20.10;32.74
36692;BME280;22678;52.052;4.242;2023-05-03T11:44:49;102894.38;;;20.32;32.36
36692;BME280;22678;52.052;4.242;2023-05-03T11:47:14;102892.66;;;20.28;32.33
36692;BME280;22678;52.052;4.242;2023-05-03T11:49:39;102879.31;;;20.26;32.26
36692;BME280;22678;52.052;4.242;2023-05-03T11:52:05;102887.19;;;20.34;31.92
36692;BME280;22678;52.052;4.242;2023-05-03T11:54:30;102876.50;;;20.34;31.86
36692;BME280;22678;52.052;4.242;2023-05-03T11:56:57;102878.19;;;20.41;32.42
36692;BME280;22678;52.052;4.242;2023-05-03T11:59:36;102879.78;;;20.52;32.14
36692;BME280;22678;52.052;4.242;2023-05-03T12:02:02;102866.56;;;20.44;31.74
36692;BME280;22678;52.052;4.242;2023-05-03T12:04:29;102870.81;;;20.56;32.16
36692;BME280;22678;52.052;4.242;2023-05-03T12:06:55;102867.03;;;20.69;32.27
36692;BME280;22678;52.052;4.242;2023-05-03T12:09:23;102856.28;;;20.72;32.08
36692;BME280;22678;52.052;4.242;2023-05-03T12:11:49;102852.50;;;20.82;32.06
36692;BME280;22678;52.052;4.242;2023-05-03T12:14:14;102855.06;;;20.89;31.33
36692;BME280;22678;52.052;4.242;2023-05-03T12:16:50;102854.09;;;20.93;31.47
36692;BME280;22678;52.052;4.242;2023-05-03T12:19:29;102853.03;;;21.02;31.62
36692;BME280;22678;52.052;4.242;2023-05-03T12:21:55;102846.88;;;20.98;31.03
36692;BME280;22678;52.052;4.242;2023-05-03T12:24:21;102853.31;;;20.86;31.33
36692;BME280;22678;52.052;4.242;2023-05-03T12:26:50;102839.16;;;20.82;31.63
36692;BME280;22678;52.052;4.242;2023-05-03T12:29:16;102818.59;;;20.85;31.38
36692;BME280;22678;52.052;4.242;2023-05-03T12:31:42;102831.66;;;21.00;31.38
36692;BME280;22678;52.052;4.242;2023-05-03T12:34:08;102837.75;;;21.08;31.36
36692;BME280;22678;52.052;4.242;2023-05-03T12:36:34;102833.22;;;21.12;30.99
36692;BME280;22678;52.052;4.242;2023-05-03T12:39:00;102821.78;;;21.04;30.99
36692;BME280;22678;52.052;4.242;2023-05-03T12:41:27;102820.06;;;21.01;30.70
36692;BME280;22678;52.052;4.242;2023-05-03T12:43:59;102821.13;;;20.92;30.97
36692;BME280;22678;52.052;4.242;2023-05-03T12:46:26;102802.47;;;20.89;31.14
36692;BME280;22678;52.052;4.242;2023-05-03T12:48:51;102815.69;;;20.97;30.73
36692;BME280;22678;52.052;4.242;2023-05-03T12:51:17;102807.72;;;20.94;30.63
36692;BME280;22678;52.052;4.242;2023-05-03T12:53:43;102807.31;;;21.12;30.97
36692;BME280;22678;52.052;4.242;2023-05-03T12:56:08;102811.78;;;21.13;30.59
36692;BME280;22678;52.052;4.242;2023-05-03T12:58:34;102792.31;;;21.05;31.33
36692;BME280;22678;52.052;4.242;2023-05-03T13:00:59;102787.25;;;20.93;30.78
36692;BME280;22678;52.052;4.242;2023-05-03T13:03:24;102794.97;;;21.08;31.12
36692;BME280;22678;52.052;4.242;2023-05-03T13:05:50;102771.84;;;21.04;30.81
36692;BME280;22678;52.052;4.242;2023-05-03T13:08:15;102760.16;;;21.10;30.30
36692;BME280;22678;52.052;4.242;2023-05-03T13:10:41;102787.47;;;21.23;30.39
36692;BME280;22678;52.052;4.242;2023-05-03T13:13:06;102782.41;;;21.10;30.50